TAF KGBD
KGBD 081735Z 0818/0918 18011KT P6SM SKC FM090000 17015G22KT P6SM BKN250 FM090700 22010KT P6SM BKN250 FM091200 26009KT P6SM SKC=
METAR KGBD
WC KGBD
WS KGBD
WV KGBD